Time;durP1;ratioP1;P1;durP2;ratioP2;P2;SDS_P1;SDS_P2;PMS_P1;PMS_P2;Temp;Humidity;BMP_temperature;BMP_pressure;BME280_temperature;BME280_humidity;BME280_pressure;Samples;Min_cycle;Max_cycle;Signal;HPM_P1;HPM_P2
2022/02/03 00:03:24;;;;;;;146.07;123.82;;;18.90;46.40;;;;;;4782909;55;21026;-36
2022/02/03 00:08:36;;;;;;;147.87;121.68;;;18.90;46.40;;;;;;4773410;55;21611;-35
2022/02/03 00:24:27;;;;;;;142.70;118.75;;;18.90;46.30;;;;;;4738244;55;21041;-38
2022/02/03 00:29:50;;;;;;;138.82;117.00;;;18.90;46.20;;;;;;4743125;55;21551;-32
2022/02/03 00:35:09;;;;;;;136.15;116.82;;;18.90;46.30;;;;;;4751502;55;21564;-46
2022/02/03 00:50:53;;;;;;;133.48;111.32;;;18.90;46.20;;;;;;4737314;55;21065;-35
2022/02/03 00:55:57;;;;;;;133.48;112.32;;;18.90;46.20;;;;;;4737942;59;21033;-37
2022/02/03 01:00:59;;;;;;;132.93;112.62;;;18.90;46.10;;;;;;4745680;55;20978;-33
2022/02/03 01:06:01;;;;;;;134.75;114.95;;;18.90;46.10;;;;;;4738151;59;21078;-36
2022/02/03 01:11:12;;;;;;;133.52;111.35;;;18.90;46.10;;;;;;4737258;59;21599;-35
2022/02/03 01:16:33;;;;;;;129.18;111.12;;;18.80;46.00;;;;;;4752703;55;21516;-36
2022/02/03 01:35:08;;;;;;;127.03;107.55;;;18.80;45.90;;;;;;4737782;55;21025;-34
2022/02/03 01:45:51;;;;;;;125.55;104.38;;;18.80;45.80;;;;;;4737308;55;21061;-35
2022/02/03 01:56:24;;;;;;;126.45;104.25;;;18.80;45.80;;;;;;4738309;55;21571;-37
2022/02/03 02:01:30;;;;;;;124.40;103.30;;;18.80;45.70;;;;;;4792925;55;21025;-36
2022/02/03 02:08:14;;;;;;;121.20;103.57;;;18.80;45.80;;;;;;4746344;55;21001;-34
2022/02/03 02:38:29;;;;;;;116.28;97.68;;;18.80;45.50;;;;;;4738147;55;21010;-35
2022/02/03 02:43:55;;;;;;;110.78;93.25;;;18.80;45.60;;;;;;4786796;55;21229;-36
2022/02/03 02:49:56;;;;;;;110.15;91.00;;;18.80;45.40;;;;;;4763853;55;21074;-36
2022/02/03 02:55:32;;;;;;;110.18;90.90;;;18.80;45.40;;;;;;4760716;55;21547;-36
2022/02/03 03:02:01;;;;;;;110.00;92.05;;;18.80;45.50;;;;;;4761100;55;21021;-37
2022/02/03 03:38:35;;;;;;;106.30;88.97;;;18.80;45.40;;;;;;4762876;55;21627;-35
2022/02/03 03:44:00;;;;;;;103.93;88.45;;;18.80;45.30;;;;;;4764371;55;21018;-37
2022/02/03 03:49:09;;;;;;;102.55;85.82;;;18.80;45.20;;;;;;4776195;55;21499;-33
2022/02/03 03:54:18;;;;;;;100.57;84.18;;;18.80;45.20;;;;;;4756595;55;22129;-37
2022/02/03 04:59:13;;;;;;;87.40;73.47;;;18.80;45.20;;;;;;4765668;55;21025;-37
2022/02/03 05:14:36;;;;;;;83.93;70.43;;;18.80;45.20;;;;;;4737140;55;21160;-36
2022/02/03 05:21:23;;;;;;;86.75;73.80;;;18.80;45.30;;;;;;4784712;55;21616;-29
2022/02/03 05:42:01;;;;;;;;;;;18.80;45.40;;;;;;4829602;55;21050;-36
2022/02/03 05:48:05;;;;;;;77.90;65.35;;;18.80;45.40;;;;;;4836893;55;20327;-45
2022/02/03 06:17:28;;;;;;;79.68;66.65;;;18.70;45.50;;;;;;4737837;55;21070;-37
2022/02/03 06:22:47;;;;;;;74.03;63.25;;;18.70;45.60;;;;;;4760422;55;21544;-32
2022/02/03 06:27:50;;;;;;;76.97;64.10;;;18.80;45.50;;;;;;4752077;55;22152;-37
2022/02/03 06:32:51;;;;;;;74.95;61.22;;;18.80;45.80;;;;;;4763938;55;21565;-32
2022/02/03 06:37:52;;;;;;;73.37;59.13;;;18.80;45.40;;;;;;4737877;59;21073;-37
2022/02/03 06:42:56;;;;;;;75.62;62.42;;;18.80;45.50;;;;;;4737894;59;21025;-37
2022/02/03 06:48:02;;;;;;;72.15;61.42;;;18.80;45.40;;;;;;4741749;55;21463;-35
2022/02/03 06:53:14;;;;;;;73.20;62.97;;;18.80;45.40;;;;;;4738641;55;21545;-39
2022/02/03 06:58:23;;;;;;;70.97;59.03;;;18.80;45.40;;;;;;4772054;55;21564;-37
2022/02/03 07:03:28;;;;;;;69.93;57.33;;;18.80;45.40;;;;;;4763248;55;21560;-35
2022/02/03 07:08:31;;;;;;;74.30;62.60;;;18.80;45.40;;;;;;4763801;55;22235;-39
2022/02/03 07:13:34;;;;;;;76.97;63.25;;;18.70;45.30;;;;;;4737040;59;21531;-33
2022/02/03 07:18:35;;;;;;;74.80;62.03;;;18.80;45.30;;;;;;4755201;55;21476;-38
2022/02/03 07:23:36;;;;;;;75.93;61.37;;;18.70;45.20;;;;;;4786793;55;21018;-32
2022/02/03 07:28:37;;;;;;;76.70;62.58;;;18.70;45.20;;;;;;4750670;55;21010;-40
2022/02/03 07:33:38;;;;;;;78.28;64.97;;;18.70;45.20;;;;;;4737617;59;21014;-33
2022/02/03 07:38:39;;;;;;;77.40;64.50;;;18.80;45.20;;;;;;4760955;55;20998;-37
2022/02/03 07:43:40;;;;;;;79.35;65.65;;;18.70;45.10;;;;;;4751301;55;21579;-36
2022/02/03 07:48:41;;;;;;;79.95;65.90;;;18.70;45.10;;;;;;4764643;55;21006;-36
2022/02/03 07:53:42;;;;;;;79.78;66.15;;;18.70;45.10;;;;;;4738504;57;21539;-37
2022/02/03 07:58:43;;;;;;;85.72;69.85;;;18.70;45.00;;;;;;4747722;55;21095;-35
2022/02/03 08:03:44;;;;;;;81.18;67.85;;;18.80;45.10;;;;;;4751839;55;20994;-36
2022/02/03 08:08:52;;;;;;;85.15;70.97;;;18.80;45.10;;;;;;4753054;55;21537;-34
2022/02/03 08:14:19;;;;;;;85.50;71.90;;;18.80;45.10;;;;;;4738858;55;21492;-38
2022/02/03 08:19:29;;;;;;;87.83;73.23;;;18.80;45.00;;;;;;4738611;55;21496;-36
2022/02/03 08:30:24;;;;;;;92.45;73.32;;;18.80;45.10;;;;;;4737715;59;21010;-34
2022/02/03 08:35:36;;;;;;;88.70;72.93;;;18.90;45.40;;;;;;4738372;55;21050;-34
2022/02/03 08:47:31;;;;;;;91.43;74.97;;;18.90;45.50;;;;;;4769131;55;21167;-40
2022/02/03 08:52:48;;;;;;;90.75;75.35;;;19.00;46.10;;;;;;4739838;55;21014;-35
2022/02/03 08:58:22;;;;;;;92.17;73.73;;;19.10;45.60;;;;;;4741749;55;21502;-35
2022/02/03 09:57:35;;;;;;;106.15;84.85;;;19.30;46.60;;;;;;4753801;55;21034;-32
2022/02/03 10:02:40;;;;;;;108.85;88.62;;;19.40;46.80;;;;;;4737438;55;21603;-29
2022/02/03 10:07:51;;;;;;;106.70;87.65;;;19.40;46.70;;;;;;4746286;55;21549;-30
2022/02/03 10:12:53;;;;;;;114.07;90.78;;;19.30;46.70;;;;;;4747480;55;21132;-33
2022/02/03 10:17:57;;;;;;;108.35;88.97;;;19.30;46.80;;;;;;4764093;55;21073;-31
2022/02/03 10:23:02;;;;;;;111.37;91.50;;;19.30;46.80;;;;;;4762316;55;21676;-35
2022/02/03 10:28:12;;;;;;;105.90;87.43;;;19.30;46.80;;;;;;4752961;55;21638;-35
2022/02/03 10:33:14;;;;;;;106.07;87.35;;;19.20;46.80;;;;;;4779312;55;21579;-30
2022/02/03 10:39:22;;;;;;;109.68;90.00;;;19.20;46.80;;;;;;4754362;55;21038;-31
2022/02/03 10:55:43;;;;;;;117.18;94.03;;;19.20;46.80;;;;;;4737809;59;21105;-33
2022/02/03 11:01:22;;;;;;;112.68;93.03;;;19.20;46.70;;;;;;4768917;55;21488;-29
2022/02/03 11:06:43;;;;;;;115.07;95.50;;;19.20;46.80;;;;;;4737956;59;21575;-31
2022/02/03 11:11:51;;;;;;;121.30;99.35;;;19.30;46.80;;;;;;4740502;55;21600;-33
2022/02/03 11:16:53;;;;;;;118.87;97.10;;;19.30;46.80;;;;;;4742940;55;21014;-33
2022/02/03 11:22:03;;;;;;;120.50;97.95;;;19.30;46.90;;;;;;4738977;59;21010;-33
2022/02/03 11:27:24;;;;;;;121.53;102.50;;;19.40;47.00;;;;;;4755063;55;21512;-37
2022/02/03 12:00:12;;;;;;;127.25;106.47;;;19.30;46.90;;;;;;4759391;55;21540;-30
2022/02/03 12:14:22;;;;;;;128.00;107.00;;;19.20;47.00;;;;;;4739051;55;21173;-34
2022/02/03 12:19:29;;;;;;;127.95;106.60;;;19.20;47.10;;;;;;4757062;55;21499;-30
2022/02/03 12:30:05;;;;;;;124.22;104.20;;;19.20;47.00;;;;;;4767731;55;21151;-30
2022/02/03 12:40:43;;;;;;;123.90;106.15;;;19.20;47.00;;;;;;4737743;55;21595;-32
2022/02/03 12:45:44;;;;;;;131.85;108.72;;;19.20;47.00;;;;;;4737764;59;21546;-34
2022/02/03 12:50:46;;;;;;;128.23;108.12;;;19.20;46.90;;;;;;4745669;55;21089;-34
2022/02/03 12:55:51;;;;;;;129.95;105.68;;;19.30;46.90;;;;;;4809067;55;21548;-32
2022/02/03 13:01:00;;;;;;;127.65;105.28;;;19.30;47.00;;;;;;4745738;55;22042;-34
2022/02/03 13:06:04;;;;;;;127.38;107.05;;;19.40;47.10;;;;;;4745916;55;21441;-35
2022/02/03 13:11:37;;;;;;;124.75;104.97;;;19.40;47.10;;;;;;4787292;55;21635;-39
2022/02/03 13:17:33;;;;;;;133.80;106.60;;;19.40;47.20;;;;;;4778206;55;21500;-37
2022/02/03 13:22:55;;;;;;;135.48;107.40;;;19.40;47.30;;;;;;4737000;59;21611;-34
2022/02/03 13:28:08;;;;;;;124.97;104.15;;;19.50;47.50;;;;;;4742046;55;21022;-36
2022/02/03 13:33:11;;;;;;;128.62;103.87;;;19.50;47.50;;;;;;4788954;55;21509;-34
2022/02/03 13:38:23;;;;;;;134.80;108.75;;;19.50;47.60;;;;;;4750010;55;21560;-36
2022/02/03 13:43:25;;;;;;;128.15;107.37;;;19.50;47.70;;;;;;4785534;55;21564;-31
2022/02/03 13:48:25;;;;;;;129.18;105.82;;;19.60;47.70;;;;;;4740280;55;21054;-29
2022/02/03 13:54:00;;;;;;;126.30;105.72;;;19.60;47.90;;;;;;4748904;55;21093;-33
2022/02/03 14:15:22;;;;;;;132.73;108.55;;;19.70;48.20;;;;;;4760896;55;21089;-36
2022/02/03 14:20:47;;;;;;;;;;;19.70;48.20;;;;;;4776031;55;21463;-33
2022/02/03 14:31:09;;;;;;;130.15;106.80;;;19.70;48.40;;;;;;4736735;55;21085;-32
2022/02/03 14:36:15;;;;;;;131.12;108.15;;;19.60;48.30;;;;;;4746660;55;21508;-35
2022/02/03 14:41:34;;;;;;;138.12;114.78;;;19.60;48.30;;;;;;4753437;55;21555;-34
2022/02/03 14:46:41;;;;;;;136.88;113.12;;;19.50;48.30;;;;;;4791962;55;21488;-38
2022/02/03 14:51:53;;;;;;;129.93;110.93;;;19.50;48.30;;;;;;4751475;55;21564;-30
2022/02/03 15:02:13;;;;;;;133.68;114.47;;;19.40;48.10;;;;;;4737757;59;21555;-35
2022/02/03 15:07:14;;;;;;;133.65;110.63;;;19.40;48.10;;;;;;4753002;55;21062;-34
2022/02/03 15:12:37;;;;;;;130.75;109.90;;;19.40;48.10;;;;;;4743916;55;21576;-34
2022/02/03 15:17:37;;;;;;;134.80;113.15;;;19.40;48.10;;;;;;4740495;55;22090;-36
2022/02/03 15:22:38;;;;;;;131.32;110.95;;;19.40;48.00;;;;;;4768895;55;21022;-33
2022/02/03 15:27:39;;;;;;;132.68;114.47;;;19.40;48.00;;;;;;4738131;59;21125;-34
2022/02/03 15:32:42;;;;;;;138.25;115.95;;;19.40;48.00;;;;;;4787061;55;21669;-32
2022/02/03 15:37:46;;;;;;;131.85;110.32;;;19.30;47.90;;;;;;4744434;55;21478;-32
2022/02/03 15:49:04;;;;;;;134.95;114.90;;;19.30;47.80;;;;;;4737148;59;21532;-34
2022/02/03 16:22:40;;;;;;;144.45;121.43;;;19.30;47.60;;;;;;4741497;55;21034;-35
2022/02/03 16:55:26;;;;;;;150.00;126.93;;;19.20;47.30;;;;;;4761683;55;21214;-32
2022/02/03 17:00:27;;;;;;;154.10;129.75;;;19.30;47.30;;;;;;4798035;55;21057;-35
2022/02/03 17:05:28;;;;;;;155.10;130.43;;;19.30;47.30;;;;;;4738013;55;21006;-36
2022/02/03 17:10:29;;;;;;;155.50;130.05;;;19.30;47.30;;;;;;4777813;55;21572;-39
2022/02/03 17:15:30;;;;;;;152.57;129.10;;;19.20;47.20;;;;;;4768969;55;21014;-39
2022/02/03 17:20:34;;;;;;;156.77;134.50;;;19.30;47.20;;;;;;4737523;59;21066;-35
2022/02/03 17:26:16;;;;;;;160.85;136.65;;;19.30;47.20;;;;;;4742414;55;22220;-36
2022/02/03 17:31:53;;;;;;;153.35;130.95;;;19.20;47.10;;;;;;4737760;55;21614;-35
2022/02/03 18:18:32;;;;;;;163.48;137.27;;;19.20;46.70;;;;;;4737428;55;21144;-30
2022/02/03 18:58:01;;;;;;;166.88;137.10;;;19.20;46.60;;;;;;4756322;55;21026;-35
2022/02/03 19:03:25;;;;;;;164.95;137.85;;;19.20;46.60;;;;;;4745141;55;21521;-31
2022/02/03 20:05:40;;;;;;;167.07;136.73;;;19.10;46.30;;;;;;4737768;55;21180;-31
2022/02/03 20:10:45;;;;;;;168.55;139.32;;;19.20;46.40;;;;;;4747963;55;21588;-38
2022/02/03 20:15:47;;;;;;;168.15;139.98;;;19.10;46.30;;;;;;4770990;55;21544;-33
2022/02/03 20:20:49;;;;;;;167.82;138.20;;;19.20;46.40;;;;;;4785597;55;21460;-37
2022/02/03 20:25:59;;;;;;;169.90;140.55;;;19.10;46.30;;;;;;4738647;59;21002;-36
2022/02/03 20:31:00;;;;;;;161.75;136.45;;;19.20;46.40;;;;;;4737604;59;21501;-31
2022/02/03 20:36:01;;;;;;;168.85;141.05;;;19.10;46.30;;;;;;4789049;55;21548;-35
2022/02/03 20:41:02;;;;;;;166.35;138.70;;;19.10;46.30;;;;;;4772093;55;21077;-34
2022/02/03 20:46:05;;;;;;;164.62;136.50;;;19.20;46.30;;;;;;4741204;55;21061;-35
2022/02/03 20:51:06;;;;;;;171.25;137.77;;;19.20;46.20;;;;;;4769132;55;21579;-33
2022/02/03 20:56:07;;;;;;;162.82;135.43;;;19.20;46.20;;;;;;4756548;55;21070;-35
2022/02/03 21:01:25;;;;;;;165.15;137.35;;;19.20;46.20;;;;;;4738142;55;21017;-34
2022/02/03 21:06:26;;;;;;;162.15;138.27;;;19.20;46.10;;;;;;4742545;55;21470;-35
2022/02/03 21:11:27;;;;;;;169.07;139.27;;;19.10;46.10;;;;;;4767281;55;21081;-35
2022/02/03 21:16:29;;;;;;;170.77;139.50;;;19.10;46.10;;;;;;4742263;55;21037;-35
2022/02/03 21:21:31;;;;;;;170.62;137.57;;;19.10;46.00;;;;;;4742854;55;21456;-35
2022/02/03 21:26:37;;;;;;;170.07;140.60;;;19.10;46.10;;;;;;4743580;55;21568;-29
2022/02/03 21:31:38;;;;;;;168.35;139.37;;;19.10;46.00;;;;;;4748340;55;21495;-32
2022/02/03 21:36:40;;;;;;;161.32;135.30;;;19.10;46.00;;;;;;4741993;55;21125;-31
2022/02/03 21:41:43;;;;;;;164.18;136.00;;;19.10;46.00;;;;;;4754796;55;22042;-34
2022/02/03 21:46:44;;;;;;;167.77;137.52;;;19.10;45.90;;;;;;4738011;59;21476;-34
2022/02/03 21:51:48;;;;;;;168.50;138.62;;;19.10;45.90;;;;;;4737307;55;21606;-35
2022/02/03 21:56:50;;;;;;;167.30;139.98;;;19.10;45.90;;;;;;4738409;59;21472;-35
2022/02/03 22:01:50;;;;;;;166.12;136.95;;;19.10;45.90;;;;;;4771776;55;21484;-32
2022/02/03 22:06:51;;;;;;;167.13;139.65;;;19.10;45.90;;;;;;4761150;55;21002;-36
2022/02/03 22:11:52;;;;;;;159.45;130.82;;;19.10;45.80;;;;;;4749859;55;21587;-32
2022/02/03 22:16:54;;;;;;;167.35;137.27;;;19.10;45.90;;;;;;4741595;55;21602;-30
2022/02/03 22:22:10;;;;;;;168.25;137.55;;;19.10;45.90;;;;;;4783288;55;21480;-34
2022/02/03 22:28:08;;;;;;;164.55;133.98;;;19.10;45.80;;;;;;4749143;55;21578;-34
2022/02/03 22:38:57;;;;;;;165.90;136.90;;;19.10;45.70;;;;;;4745109;55;21034;-32
2022/02/03 22:44:05;;;;;;;167.27;137.30;;;19.10;46.30;;;;;;4738260;55;21580;-33
2022/02/03 22:49:07;;;;;;;;;;;19.10;45.90;;;;;;4761764;55;21342;-34
2022/02/03 22:54:09;;;;;;;163.12;133.98;;;19.10;45.60;;;;;;4767583;55;20119;-32
2022/02/03 23:05:33;;;;;;;165.27;135.23;;;19.10;45.60;;;;;;4774342;55;21080;-35
2022/02/03 23:10:50;;;;;;;164.25;134.57;;;19.10;45.60;;;;;;4771313;55;21102;-34
2022/02/03 23:16:07;;;;;;;160.57;132.55;;;19.10;45.60;;;;;;4805448;55;21570;-35
2022/02/03 23:27:58;;;;;;;165.73;132.85;;;19.10;45.60;;;;;;4771574;55;21128;-30
2022/02/03 23:32:59;;;;;;;166.88;134.57;;;19.10;45.60;;;;;;4794543;55;22381;-35
2022/02/03 23:44:47;;;;;;;163.32;131.73;;;19.10;45.40;;;;;;4737395;59;21607;-33
